createdAt,value
2019-02-01T00:03:35.996Z,100.00
2019-02-01T00:09:52.512Z,100.00
2019-02-01T00:12:21.061Z,100.00
2019-02-01T00:14:51.081Z,100.00
2019-02-01T00:19:54.084Z,100.00
2019-02-01T00:25:55.454Z,100.00
2019-02-01T00:28:43.095Z,100.00
2019-02-01T00:31:30.741Z,100.00
2019-02-01T00:33:59.208Z,100.00
2019-02-01T00:36:46.956Z,100.00
2019-02-01T00:39:15.407Z,100.00
2019-02-01T00:41:43.850Z,100.00
2019-02-01T00:44:12.259Z,100.00
2019-02-01T00:46:40.721Z,100.00
2019-02-01T00:49:28.353Z,100.00
2019-02-01T00:54:31.155Z,100.00
2019-02-01T00:59:33.498Z,100.00
2019-02-01T01:02:01.931Z,100.00
2019-02-01T01:07:44.190Z,100.00
2019-02-01T01:10:52.877Z,100.00
2019-02-01T01:13:21.377Z,100.00
2019-02-01T01:15:49.837Z,100.00
2019-02-01T01:18:58.230Z,100.00
2019-02-01T01:21:45.978Z,100.00
2019-02-01T01:24:33.744Z,100.00
2019-02-01T01:27:21.444Z,100.00
2019-02-01T01:30:09.083Z,100.00
2019-02-01T01:32:37.652Z,100.00
2019-02-01T01:46:41.656Z,100.00
2019-02-01T01:49:29.306Z,100.00
2019-02-01T01:51:57.827Z,100.00
2019-02-01T01:54:26.250Z,100.00
2019-02-01T01:59:28.928Z,100.00
2019-02-01T02:04:31.957Z,100.00
2019-02-01T02:07:40.307Z,100.00
2019-02-01T02:10:48.687Z,100.00
2019-02-01T02:13:36.428Z,100.00
2019-02-01T02:16:44.873Z,100.00
2019-02-01T02:19:13.300Z,100.00
2019-02-01T02:21:41.795Z,100.00
2019-02-01T02:24:10.262Z,100.00
2019-02-01T02:26:57.932Z,100.00
2019-02-01T02:32:00.523Z,100.00
2019-02-01T02:34:48.508Z,100.00
2019-02-01T02:37:16.963Z,100.00
2019-02-01T02:39:45.856Z,100.00
2019-02-01T02:42:14.382Z,100.00
2019-02-01T02:44:43.123Z,100.00
2019-02-01T02:47:11.771Z,100.00
2019-02-01T02:49:40.612Z,100.00
2019-02-01T02:52:09.312Z,100.00
2019-02-01T02:54:37.743Z,100.00
2019-02-01T02:57:09.447Z,100.00
2019-02-01T02:59:36.481Z,100.00
2019-02-01T03:02:44.859Z,100.00
2019-02-01T03:05:53.209Z,100.00
2019-02-01T03:08:21.768Z,100.00
2019-02-01T03:13:58.620Z,100.00
2019-02-01T03:16:27.116Z,100.00
2019-02-01T03:18:55.544Z,100.00
2019-02-01T03:24:17.116Z,100.00
2019-02-01T03:29:39.312Z,100.00
2019-02-01T03:32:27.105Z,100.00
2019-02-01T03:34:57.888Z,100.00
2019-02-01T03:37:25.671Z,100.00
2019-02-01T03:40:13.340Z,100.00
2019-02-01T03:42:41.845Z,100.00
2019-02-01T03:45:50.217Z,100.00
2019-02-01T03:48:18.653Z,100.00
2019-02-01T03:50:47.082Z,100.00
2019-02-01T03:53:15.540Z,100.00
2019-02-01T03:56:03.168Z,100.00
2019-02-01T04:01:06.118Z,100.00
2019-02-01T04:06:08.797Z,100.00
2019-02-01T04:11:11.548Z,100.00
2019-02-01T04:13:59.269Z,100.00
2019-02-01T04:16:27.697Z,100.00
2019-02-01T04:18:56.123Z,100.00
2019-02-01T04:21:43.772Z,100.00
2019-02-01T04:24:12.199Z,100.00
2019-02-01T04:26:40.628Z,100.00
2019-02-01T04:29:09.081Z,100.00
2019-02-01T04:31:37.504Z,100.00
2019-02-01T04:34:05.927Z,100.00
2019-02-01T04:36:36.601Z,100.00
2019-02-01T04:39:44.476Z,100.00
2019-02-01T04:44:47.122Z,100.00
2019-02-01T04:47:15.543Z,100.00
2019-02-01T04:49:43.968Z,100.00
2019-02-01T04:52:31.980Z,100.00
2019-02-01T04:55:00.406Z,100.00
2019-02-01T04:57:28.827Z,100.00
2019-02-01T04:59:57.312Z,100.00
2019-02-01T05:02:25.705Z,100.00
2019-02-01T05:04:54.126Z,100.00
2019-02-01T05:07:41.846Z,100.00
2019-02-01T05:10:50.184Z,100.00
2019-02-01T05:15:52.334Z,100.00
2019-02-01T05:18:20.768Z,100.00
2019-02-01T05:20:49.230Z,100.00
2019-02-01T05:23:17.662Z,100.00
2019-02-01T05:25:46.092Z,100.00
2019-02-01T05:30:48.972Z,100.00
2019-02-01T05:33:17.430Z,100.00
2019-02-01T05:35:45.850Z,100.00
2019-02-01T05:38:14.277Z,100.00
2019-02-01T05:40:42.734Z,100.00
2019-02-01T05:43:11.169Z,100.00
2019-02-01T05:45:39.601Z,100.00
2019-02-01T05:48:08.072Z,100.00
2019-02-01T05:50:36.508Z,100.00
2019-02-01T05:55:58.432Z,100.00
2019-02-01T05:58:26.828Z,100.00
2019-02-01T06:00:55.294Z,100.00
2019-02-01T06:03:43.044Z,100.00
2019-02-01T06:06:11.516Z,100.00
2019-02-01T06:08:39.945Z,100.00
2019-02-01T06:11:08.399Z,100.00
2019-02-01T06:13:36.865Z,100.00
2019-02-01T06:16:24.560Z,100.00
2019-02-01T06:18:53.049Z,100.00
2019-02-01T06:21:21.502Z,100.00
2019-02-01T06:24:09.181Z,100.00
2019-02-01T06:26:56.954Z,100.00
2019-02-01T06:29:25.528Z,100.00
2019-02-01T06:31:53.973Z,100.00
2019-02-01T06:34:22.408Z,100.00
2019-02-01T06:39:25.509Z,100.00
2019-02-01T06:42:13.154Z,100.00
2019-02-01T06:44:41.607Z,100.00
2019-02-01T06:47:29.325Z,100.00
2019-02-01T06:55:21.262Z,100.00
2019-02-01T07:08:50.693Z,100.00
2019-02-01T07:11:38.282Z,100.00
2019-02-01T07:14:25.906Z,100.00
2019-02-01T07:17:13.481Z,100.00
2019-02-01T07:20:01.043Z,100.00
2019-02-01T07:22:48.940Z,100.00
2019-02-01T07:31:40.126Z,100.00
2019-02-01T07:34:27.752Z,100.00
2019-02-01T07:36:56.285Z,100.00
2019-02-01T07:39:24.722Z,100.00
2019-02-01T07:41:53.156Z,100.00
2019-02-01T07:44:21.626Z,100.00
2019-02-01T07:46:50.058Z,100.00
2019-02-01T07:49:18.493Z,100.00
2019-02-01T07:54:21.157Z,100.00
2019-02-01T07:56:49.591Z,100.00
2019-02-01T08:02:10.859Z,100.00
2019-02-01T08:04:39.317Z,100.00
2019-02-01T08:07:27.001Z,100.00
2019-02-01T08:12:29.230Z,100.00
2019-02-01T08:14:57.662Z,100.00
2019-02-01T08:17:26.134Z,100.00
2019-02-01T08:19:54.561Z,100.00
2019-02-01T08:22:23.023Z,100.00
2019-02-01T08:25:10.707Z,100.00
2019-02-01T08:27:39.204Z,100.00
2019-02-01T08:30:47.652Z,100.00
2019-02-01T08:33:16.087Z,100.00
2019-02-01T08:35:44.589Z,100.00
2019-02-01T08:38:13.050Z,100.00
2019-02-01T08:40:41.485Z,100.00
2019-02-01T08:43:09.919Z,100.00
2019-02-01T08:45:38.394Z,100.00
2019-02-01T08:48:26.145Z,100.00
2019-02-01T08:51:38.632Z,100.00
2019-02-01T08:54:44.762Z,100.00
2019-02-01T08:59:47.338Z,100.00
2019-02-01T09:02:15.772Z,100.00
2019-02-01T09:04:44.239Z,100.00
2019-02-01T09:07:12.672Z,100.00
2019-02-01T09:09:41.097Z,100.00
2019-02-01T09:12:28.711Z,100.00
2019-02-01T09:14:57.142Z,100.00
2019-02-01T09:17:44.934Z,100.00
2019-02-01T09:20:32.710Z,100.00
2019-02-01T09:25:35.654Z,100.00
2019-02-01T09:30:38.861Z,100.00
2019-02-01T09:33:26.653Z,100.00
2019-02-01T09:36:14.563Z,100.00
2019-02-01T09:38:43.023Z,100.00
2019-02-01T09:41:11.465Z,100.00
2019-02-01T09:43:59.302Z,100.00
2019-02-01T09:46:27.734Z,100.00
2019-02-01T09:48:56.238Z,100.00
2019-02-01T09:54:17.290Z,100.00
2019-02-01T09:56:45.791Z,100.00
2019-02-01T09:59:14.249Z,100.00
2019-02-01T10:01:42.752Z,100.00
2019-02-01T10:06:45.833Z,100.00
2019-02-01T10:09:14.267Z,100.00
2019-02-01T10:12:01.965Z,100.00
2019-02-01T10:14:30.401Z,100.00
2019-02-01T10:16:58.901Z,100.00
2019-02-01T10:19:27.372Z,100.00
2019-02-01T10:22:15.122Z,100.00
2019-02-01T10:25:03.136Z,100.00
2019-02-01T10:27:31.836Z,100.00
2019-02-01T10:30:00.537Z,100.00
2019-02-01T10:32:29.285Z,100.00
2019-02-01T10:34:58.018Z,99.11
2019-02-01T10:37:26.526Z,98.56
2019-02-01T10:39:55.132Z,98.14
2019-02-01T10:42:23.858Z,98.62
2019-02-01T10:44:53.804Z,99.17
2019-02-01T10:49:56.797Z,97.88
2019-02-01T10:52:25.258Z,97.71
2019-02-01T10:55:12.869Z,96.45
2019-02-01T10:57:41.336Z,97.29
2019-02-01T11:00:49.677Z,96.80
2019-02-01T11:03:18.136Z,96.64
2019-02-01T11:05:46.641Z,96.65
2019-02-01T11:08:15.072Z,96.85
2019-02-01T11:13:55.961Z,97.80
2019-02-01T11:18:58.063Z,97.55
2019-02-01T11:21:26.492Z,97.45
2019-02-01T11:23:54.953Z,97.29
2019-02-01T11:26:23.381Z,97.92
2019-02-01T11:28:51.807Z,98.04
2019-02-01T11:33:54.473Z,98.43
2019-02-01T11:36:22.901Z,98.43
2019-02-01T11:38:51.356Z,98.27
2019-02-01T11:41:39.041Z,97.26
2019-02-01T11:44:07.493Z,97.13
2019-02-01T11:46:35.920Z,97.58
2019-02-01T11:49:44.319Z,97.40
2019-02-01T11:52:32.021Z,97.73
2019-02-01T11:55:00.476Z,97.00
2019-02-01T11:57:28.915Z,97.20
2019-02-01T11:59:57.420Z,97.69
2019-02-01T12:02:25.977Z,96.85
2019-02-01T12:05:13.618Z,96.43
2019-02-01T12:10:35.241Z,97.24
2019-02-01T12:13:23.012Z,97.39
2019-02-01T12:15:51.513Z,97.08
2019-02-01T12:18:19.945Z,96.76
2019-02-01T12:20:48.394Z,96.65
2019-02-01T12:23:16.821Z,96.66
2019-02-01T12:26:04.835Z,96.04
2019-02-01T12:28:33.231Z,96.89
2019-02-01T12:31:20.955Z,97.02
2019-02-01T12:33:49.384Z,97.24
2019-02-01T12:36:37.157Z,97.35
2019-02-01T12:39:45.503Z,96.97
2019-02-01T12:42:13.968Z,97.28
2019-02-01T12:44:42.392Z,97.75
2019-02-01T12:47:10.826Z,97.87
2019-02-01T12:49:39.276Z,97.34
2019-02-01T12:52:07.771Z,97.38
2019-02-01T12:54:55.511Z,96.29
2019-02-01T12:57:24.008Z,96.98
2019-02-01T12:59:52.436Z,96.88
2019-02-01T13:02:40.081Z,96.76
2019-02-01T13:05:48.433Z,96.91
2019-02-01T13:08:36.168Z,95.94
2019-02-01T13:11:44.525Z,96.13
2019-02-01T13:14:12.981Z,94.62
2019-02-01T13:16:41.416Z,95.72
2019-02-01T13:19:09.911Z,96.36
2019-02-01T13:21:38.368Z,94.92
2019-02-01T13:24:26.078Z,95.77
2019-02-01T13:26:54.611Z,95.90
2019-02-01T13:29:23.060Z,95.82
2019-02-01T13:31:51.492Z,95.55
2019-02-01T13:34:19.970Z,94.95
2019-02-01T13:36:55.552Z,94.10
2019-02-01T13:39:43.269Z,95.92
2019-02-01T13:42:30.946Z,96.21
2019-02-01T13:44:59.412Z,95.97
2019-02-01T13:47:27.845Z,96.05
2019-02-01T13:49:56.272Z,94.69
2019-02-01T13:52:24.738Z,95.19
2019-02-01T13:54:53.167Z,94.83
2019-02-01T13:57:21.664Z,95.13
2019-02-01T13:59:52.445Z,95.06
2019-02-01T14:02:20.296Z,95.57
2019-02-01T14:04:48.725Z,95.64
2019-02-01T14:07:17.181Z,94.27
2019-02-01T14:09:45.680Z,94.63
2019-02-01T14:12:14.108Z,95.25
2019-02-01T14:17:35.652Z,94.00
2019-02-01T14:20:44.062Z,93.47
2019-02-01T14:23:52.419Z,93.48
2019-02-01T14:26:22.698Z,93.28
2019-02-01T14:29:10.492Z,94.10
2019-02-01T14:34:12.840Z,94.53
2019-02-01T14:36:41.269Z,94.38
2019-02-01T14:39:28.988Z,94.88
2019-02-01T14:42:16.621Z,96.00
2019-02-01T14:44:45.152Z,96.31
2019-02-01T14:47:13.585Z,96.64
2019-02-01T14:49:42.013Z,97.61
2019-02-01T14:58:17.726Z,97.74
2019-02-01T15:00:46.149Z,97.82
2019-02-01T15:03:14.597Z,97.51
2019-02-01T15:08:36.960Z,97.92
2019-02-01T15:11:45.358Z,97.80
2019-02-01T15:14:13.792Z,98.30
2019-02-01T15:16:42.223Z,97.37
2019-02-01T15:19:30.124Z,97.39
2019-02-01T15:21:58.555Z,97.08
2019-02-01T15:24:27.061Z,97.70
2019-02-01T15:29:29.141Z,97.91
2019-02-01T15:31:57.568Z,97.04
2019-02-01T15:36:59.959Z,97.37
2019-02-01T15:42:22.392Z,96.66
2019-02-01T15:45:10.424Z,97.89
2019-02-01T15:47:38.848Z,96.92
2019-02-01T15:50:47.303Z,98.15
2019-02-01T15:53:15.731Z,98.57
2019-02-01T15:58:37.985Z,98.19
2019-02-01T16:01:46.435Z,97.37
2019-02-01T16:04:14.865Z,97.69
2019-02-01T16:06:43.288Z,98.25
2019-02-01T16:09:31.094Z,98.70
2019-02-01T16:12:18.710Z,99.29
2019-02-01T16:15:06.613Z,99.16
2019-02-01T16:17:54.361Z,98.99
2019-02-01T16:21:02.993Z,99.16
2019-02-01T16:23:50.681Z,99.25
2019-02-01T16:29:12.905Z,99.52
2019-02-01T16:34:34.558Z,100.00
2019-02-01T16:37:22.404Z,100.00
2019-02-01T16:39:50.845Z,100.00
2019-02-01T16:42:38.698Z,100.00
2019-02-01T16:45:47.041Z,98.96
2019-02-01T16:48:15.521Z,99.21
2019-02-01T16:50:44.017Z,98.36
2019-02-01T16:53:12.548Z,98.80
2019-02-01T16:56:00.385Z,97.10
2019-02-01T16:58:48.007Z,97.62
2019-02-01T17:01:35.807Z,96.68
2019-02-01T17:07:12.422Z,98.36
2019-02-01T17:09:40.852Z,99.53
2019-02-01T17:12:28.631Z,100.00
2019-02-01T17:14:57.064Z,100.00
2019-02-01T17:17:25.525Z,100.00
2019-02-01T17:20:13.310Z,100.00
2019-02-01T17:23:00.993Z,100.00
2019-02-01T17:25:29.919Z,100.00
2019-02-01T17:28:38.269Z,100.00
2019-02-01T17:31:26.065Z,100.00
2019-02-01T17:33:54.498Z,100.00
2019-02-01T17:36:22.987Z,100.00
2019-02-01T17:39:10.619Z,100.00
2019-02-01T17:41:58.373Z,100.00
2019-02-01T17:44:26.974Z,100.00
2019-02-01T17:47:14.913Z,100.00
2019-02-01T17:49:44.797Z,100.00
2019-02-01T17:52:13.254Z,100.00
2019-02-01T17:54:41.713Z,100.00
2019-02-01T17:57:29.366Z,100.00
2019-02-01T17:59:57.799Z,100.00
2019-02-01T18:02:26.229Z,100.00
2019-02-01T18:04:54.689Z,100.00
2019-02-01T18:07:23.124Z,100.00
2019-02-01T18:09:51.569Z,100.00
2019-02-01T18:12:20.037Z,100.00
2019-02-01T18:14:48.469Z,100.00
2019-02-01T18:17:16.974Z,100.00
2019-02-01T18:19:45.505Z,100.00
2019-02-01T18:22:33.257Z,100.00
2019-02-01T18:25:01.725Z,100.00
2019-02-01T18:27:30.162Z,100.00
2019-02-01T18:29:58.596Z,100.00
2019-02-01T18:35:00.769Z,100.00
2019-02-01T18:42:58.113Z,100.00
2019-02-01T18:45:45.872Z,100.00
2019-02-01T18:48:14.357Z,100.00
2019-02-01T18:51:01.993Z,100.00
2019-02-01T18:53:30.453Z,100.00
2019-02-01T18:55:59.143Z,100.00
2019-02-01T18:58:27.583Z,100.00
2019-02-01T19:01:15.410Z,100.00
2019-02-01T19:04:02.966Z,100.00
2019-02-01T19:06:50.555Z,100.00
2019-02-01T19:09:18.826Z,100.00
2019-02-01T19:14:37.732Z,100.00
2019-02-01T19:17:06.177Z,100.00
2019-02-01T19:19:34.618Z,100.00
2019-02-01T19:25:15.444Z,100.00
2019-02-01T19:28:03.330Z,100.00
2019-02-01T19:31:11.709Z,100.00
2019-02-01T19:33:59.584Z,100.00
2019-02-01T19:37:07.970Z,100.00
2019-02-01T19:46:04.631Z,100.00
2019-02-01T19:48:52.437Z,100.00
2019-02-01T19:51:40.371Z,100.00
2019-02-01T19:54:08.996Z,100.00
2019-02-01T19:56:56.819Z,100.00
2019-02-01T19:59:44.619Z,100.00
2019-02-01T20:02:32.448Z,100.00
2019-02-01T20:05:20.252Z,100.00
2019-02-01T20:11:02.326Z,100.00
2019-02-01T20:16:44.690Z,100.00
2019-02-01T20:19:32.611Z,100.00
2019-02-01T20:22:01.177Z,100.00
2019-02-01T20:27:42.327Z,100.00
2019-02-01T20:30:51.089Z,100.00
2019-02-01T20:33:21.564Z,100.00
2019-02-01T20:39:02.919Z,100.00
2019-02-01T20:41:31.879Z,100.00
2019-02-01T20:44:19.670Z,100.00
2019-02-01T20:47:07.498Z,100.00
2019-02-01T20:49:36.217Z,100.00
2019-02-01T20:52:04.902Z,100.00
2019-02-01T20:54:33.571Z,100.00
2019-02-01T20:57:02.182Z,100.00
2019-02-01T20:59:30.672Z,100.00
2019-02-01T21:01:59.176Z,100.00
2019-02-01T21:04:27.713Z,100.00
2019-02-01T21:06:56.353Z,100.00
2019-02-01T21:09:24.842Z,100.00
2019-02-01T21:11:53.379Z,100.00
2019-02-01T21:14:21.992Z,100.00
2019-02-01T21:16:53.702Z,100.00
2019-02-01T21:19:22.308Z,100.00
2019-02-01T21:21:50.782Z,100.00
2019-02-01T21:24:19.712Z,100.00
2019-02-01T21:26:48.254Z,100.00
2019-02-01T21:29:16.792Z,100.00
2019-02-01T21:31:45.263Z,100.00
2019-02-01T21:34:13.775Z,100.00
2019-02-01T21:36:42.303Z,100.00
2019-02-01T21:39:11.318Z,100.00
2019-02-01T21:41:39.752Z,100.00
2019-02-01T21:44:08.260Z,100.00
2019-02-01T21:46:36.873Z,100.00
2019-02-01T21:49:05.663Z,100.00
2019-02-01T21:51:34.096Z,100.00
2019-02-01T21:54:02.596Z,100.00
2019-02-01T21:56:42.483Z,100.00
2019-02-01T21:59:01.235Z,100.00
2019-02-01T22:01:29.819Z,100.00
2019-02-01T22:03:58.254Z,100.00
2019-02-01T22:06:26.717Z,100.00
2019-02-01T22:08:55.321Z,100.00
2019-02-01T22:11:23.789Z,100.00
2019-02-01T22:13:52.229Z,100.00
2019-02-01T22:16:21.091Z,100.00
2019-02-01T22:18:49.523Z,100.00
2019-02-01T22:21:18.047Z,100.00
2019-02-01T22:23:46.513Z,100.00
2019-02-01T22:26:14.945Z,100.00
2019-02-01T22:28:43.408Z,100.00
2019-02-01T22:31:12.273Z,100.00
2019-02-01T22:33:40.693Z,100.00
2019-02-01T22:36:09.121Z,100.00
2019-02-01T22:38:37.592Z,100.00
2019-02-01T22:41:06.096Z,100.00
2019-02-01T22:43:34.527Z,100.00
2019-02-01T22:46:03.028Z,100.00
2019-02-01T22:48:31.458Z,100.00
2019-02-01T22:50:59.957Z,100.00
2019-02-01T22:53:28.603Z,100.00
2019-02-01T22:55:57.058Z,100.00
2019-02-01T22:58:25.490Z,100.00
2019-02-01T23:01:04.644Z,100.00
2019-02-01T23:03:48.837Z,100.00
2019-02-01T23:06:18.636Z,100.00
2019-02-01T23:08:47.070Z,100.00
2019-02-01T23:11:15.535Z,100.00
2019-02-01T23:13:44.072Z,100.00
2019-02-01T23:16:12.746Z,100.00
2019-02-01T23:18:41.249Z,100.00
2019-02-01T23:21:10.305Z,100.00
2019-02-01T23:23:38.877Z,100.00
2019-02-01T23:26:07.552Z,100.00
2019-02-01T23:28:36.958Z,100.00
2019-02-01T23:31:06.133Z,100.00
2019-02-01T23:33:34.605Z,100.00
2019-02-01T23:36:03.247Z,100.00
2019-02-01T23:38:31.746Z,100.00
2019-02-01T23:41:00.256Z,100.00
2019-02-01T23:43:30.383Z,100.00
2019-02-01T23:45:58.818Z,100.00
2019-02-01T23:48:27.249Z,100.00
2019-02-01T23:50:55.835Z,100.00
2019-02-01T23:53:24.271Z,100.00
2019-02-01T23:55:52.703Z,100.00
2019-02-01T23:58:22.813Z,100.00
